Grass Valley, Oregon
Current Conditions -  °F | °C
As of 4:53 AM on Wednesday 22 Oct 2014 (Local Time) from KDLS Reporting Station
Overcast Overcast  
Wind Chill: 12°   Ceiling: 7500
Heat Index: 12°   Visibility: 10mi
Dew Point:   Wind: 7mph
Humidity: 83%   Direction: 330°NNW
Pressure: 29.84"   Gusts: NA
Location:  45.36°N, 120.79°W
Report Text: KDLS 221153Z AUTO 33006KT 10SM OVC075 12/09 A2984 RMK AO2 SLP105 T01170089 10122 20100 56014
Loading
Personal Weather Stations






























Interactive Weather Map
Tropical Storm Tracking
New forecast layout! Learn more

10-Day Weather Forecast

Advertisements
Track Severe Weather on mobile